Time;durP1;ratioP1;P1;durP2;ratioP2;P2;SDS_P1;SDS_P2;PMS_P1;PMS_P2;Temp;Humidity;BMP_temperature;BMP_pressure;BME280_temperature;BME280_humidity;BME280_pressure;Samples;Min_cycle;Max_cycle;Signal;HPM_P1;HPM_P2
2023/12/04 00:00:32;;;;;;;12.88;8.75;;;1.10;99.90;;;;;;5093721;28;20169;-55
2023/12/04 00:02:58;;;;;;;14.32;8.80;;;1.10;99.90;;;;;;5094050;28;20176;-55
2023/12/04 00:05:23;;;;;;;14.75;8.80;;;1.10;99.90;;;;;;5093654;28;20177;-57
2023/12/04 00:07:49;;;;;;;15.95;8.95;;;1.10;99.90;;;;;;5102376;28;20207;-57
2023/12/04 00:10:15;;;;;;;14.82;9.00;;;1.10;99.90;;;;;;5113590;28;20207;-56
2023/12/04 00:12:40;;;;;;;15.25;8.70;;;1.10;99.90;;;;;;5114027;28;20239;-55
2023/12/04 00:15:06;;;;;;;15.07;9.32;;;1.10;99.90;;;;;;5113942;28;20168;-54
2023/12/04 00:17:32;;;;;;;13.95;8.82;;;1.20;99.90;;;;;;5113826;28;20157;-57
2023/12/04 00:19:57;;;;;;;15.15;9.13;;;1.20;99.90;;;;;;5114150;28;20169;-52
2023/12/04 00:22:23;;;;;;;15.27;9.52;;;1.20;99.90;;;;;;5113714;28;20169;-54
2023/12/04 00:24:49;;;;;;;14.98;8.68;;;1.20;99.90;;;;;;5113569;28;20208;-52
2023/12/04 00:27:14;;;;;;;15.55;9.73;;;1.20;99.90;;;;;;5113581;28;20183;-53
2023/12/04 00:29:40;;;;;;;15.90;8.75;;;1.20;99.90;;;;;;5113575;28;20165;-53
2023/12/04 00:32:05;;;;;;;15.68;8.95;;;1.20;99.90;;;;;;5113590;28;20160;-54
2023/12/04 00:34:31;;;;;;;15.02;8.93;;;1.20;99.90;;;;;;5113468;28;20165;-56
2023/12/04 00:36:56;;;;;;;12.75;8.27;;;1.20;99.90;;;;;;5113791;28;20176;-56
2023/12/04 00:39:22;;;;;;;13.68;8.32;;;1.20;99.90;;;;;;5095786;28;20260;-49
2023/12/04 00:41:47;;;;;;;14.77;8.32;;;1.20;99.90;;;;;;5093056;28;20169;-55
2023/12/04 00:44:13;;;;;;;15.35;8.85;;;1.20;99.90;;;;;;5092815;28;20731;-53
2023/12/04 00:46:39;;;;;;;14.50;8.95;;;1.20;99.90;;;;;;5092905;28;20636;-57
2023/12/04 00:49:04;;;;;;;11.98;7.82;;;1.20;99.90;;;;;;5092828;28;20629;-56
2023/12/04 00:51:37;;;;;;;14.95;8.27;;;1.10;99.90;;;;;;5092597;28;20212;-51
2023/12/04 00:54:02;;;;;;;13.75;8.07;;;1.10;99.90;;;;;;5092954;28;20254;-54
2023/12/04 00:56:28;;;;;;;13.20;8.07;;;1.20;99.90;;;;;;5093114;28;20621;-56
2023/12/04 00:58:54;;;;;;;15.40;8.40;;;1.10;99.90;;;;;;5092633;28;20210;-53
2023/12/04 01:01:19;;;;;;;13.40;7.90;;;1.20;99.90;;;;;;5092782;28;20173;-57
2023/12/04 01:03:45;;;;;;;14.13;8.00;;;1.20;99.90;;;;;;5092323;28;20201;-57
2023/12/04 01:06:21;;;;;;;12.70;8.13;;;1.10;99.90;;;;;;5092187;28;20176;-57
2023/12/04 01:08:46;;;;;;;13.68;8.77;;;1.10;99.90;;;;;;5111461;28;20173;-56
2023/12/04 01:11:14;;;;;;;15.82;8.77;;;1.10;99.90;;;;;;5112711;28;20161;-56
2023/12/04 01:13:40;;;;;;;13.82;8.15;;;1.00;99.90;;;;;;5112818;28;20256;-57
2023/12/04 01:16:06;;;;;;;15.40;8.55;;;1.00;99.90;;;;;;5112697;28;20188;-54
2023/12/04 01:18:31;;;;;;;12.38;7.40;;;1.10;99.90;;;;;;5111471;28;20630;-56
2023/12/04 01:20:57;;;;;;;12.75;7.90;;;1.10;99.90;;;;;;5112541;28;20294;-54
2023/12/04 01:23:22;;;;;;;13.68;8.25;;;1.10;99.90;;;;;;5112050;28;20329;-54
2023/12/04 01:25:48;;;;;;;14.02;8.77;;;1.10;99.90;;;;;;5112815;28;20252;-57
2023/12/04 01:28:14;;;;;;;12.05;8.13;;;1.10;99.90;;;;;;5112413;28;20171;-57
2023/12/04 01:30:40;;;;;;;13.40;8.52;;;1.10;99.90;;;;;;5112234;28;20248;-54
2023/12/04 01:33:05;;;;;;;12.55;8.82;;;1.10;99.90;;;;;;5112520;28;20176;-57
2023/12/04 01:35:31;;;;;;;13.27;8.50;;;1.10;99.90;;;;;;5112316;28;20255;-54
2023/12/04 01:37:56;;;;;;;15.55;8.55;;;1.10;99.90;;;;;;5099790;28;20242;-51
2023/12/04 01:40:22;;;;;;;12.98;8.27;;;1.10;99.90;;;;;;5091879;28;20211;-56
2023/12/04 01:42:47;;;;;;;12.57;7.80;;;1.10;99.90;;;;;;5092117;28;20199;-58
2023/12/04 01:45:13;;;;;;;14.45;8.52;;;1.10;99.90;;;;;;5092142;28;20629;-58
2023/12/04 01:47:39;;;;;;;12.18;7.82;;;1.10;99.90;;;;;;5092084;28;20231;-58
2023/12/04 01:50:06;;;;;;;11.90;7.82;;;1.20;99.90;;;;;;5092034;28;20218;-55
2023/12/04 01:52:32;;;;;;;16.80;8.82;;;1.10;99.90;;;;;;5091479;28;20217;-57
2023/12/04 01:54:57;;;;;;;13.23;8.05;;;1.10;99.90;;;;;;5092145;28;20554;-58
2023/12/04 01:57:23;;;;;;;13.60;7.53;;;1.20;99.90;;;;;;5091933;28;20183;-58
2023/12/04 01:59:49;;;;;;;12.30;7.85;;;1.10;99.90;;;;;;5091703;28;20531;-55
2023/12/04 02:02:14;;;;;;;14.13;8.18;;;1.10;99.90;;;;;;5091825;28;20212;-57
2023/12/04 02:04:40;;;;;;;12.45;7.85;;;1.10;99.90;;;;;;5091508;28;20613;-56
2023/12/04 02:07:06;;;;;;;12.57;7.63;;;1.10;99.90;;;;;;5096193;28;20632;-57
2023/12/04 02:09:32;;;;;;;13.52;7.60;;;1.10;99.90;;;;;;5112146;28;20229;-54
2023/12/04 02:11:59;;;;;;;13.27;7.78;;;1.10;99.90;;;;;;5112203;28;20165;-55
2023/12/04 02:14:24;;;;;;;14.43;8.15;;;1.20;99.90;;;;;;5111788;28;20225;-54
2023/12/04 02:16:52;;;;;;;13.93;8.35;;;1.10;99.90;;;;;;5111493;28;20671;-53
2023/12/04 02:19:17;;;;;;;13.52;7.72;;;1.10;99.90;;;;;;5111835;28;20157;-54
2023/12/04 02:21:43;;;;;;;13.75;8.52;;;1.10;99.90;;;;;;5112060;28;20252;-54
2023/12/04 02:24:08;;;;;;;14.82;8.82;;;1.10;99.90;;;;;;5111659;28;20200;-57
2023/12/04 02:26:51;;;;;;;12.48;8.05;;;1.00;99.90;;;;;;5111798;28;20157;-57
2023/12/04 02:29:29;;;;;;;13.02;7.90;;;1.10;99.90;;;;;;5111760;28;20631;-57
2023/12/04 02:31:56;;;;;;;13.73;7.85;;;1.10;99.90;;;;;;5112236;28;20168;-57
2023/12/04 02:34:23;;;;;;;12.45;7.55;;;1.00;99.90;;;;;;5111861;28;20165;-55
2023/12/04 02:36:49;;;;;;;12.57;7.82;;;1.00;99.90;;;;;;5109311;28;20169;-57
2023/12/04 02:39:15;;;;;;;11.95;8.15;;;1.00;99.90;;;;;;5097560;28;20636;-57
2023/12/04 02:41:41;;;;;;;11.80;7.40;;;1.10;99.90;;;;;;5111877;28;20186;-57
2023/12/04 02:44:06;;;;;;;13.82;7.30;;;1.10;99.90;;;;;;5111565;28;20210;-56
2023/12/04 02:46:32;;;;;;;11.68;7.60;;;1.10;99.90;;;;;;5111644;28;20244;-54
2023/12/04 02:48:57;;;;;;;11.70;6.75;;;1.10;99.90;;;;;;5112945;28;20249;-57
2023/12/04 02:51:26;;;;;;;11.07;7.43;;;1.10;99.90;;;;;;5113641;28;20266;-56
2023/12/04 02:53:51;;;;;;;10.43;7.68;;;1.10;99.90;;;;;;5115417;28;20164;-57
2023/12/04 02:56:17;;;;;;;13.40;7.88;;;1.10;99.90;;;;;;5115472;28;20209;-57
2023/12/04 02:58:42;;;;;;;14.77;8.45;;;1.00;99.90;;;;;;5115321;28;20574;-57
2023/12/04 03:01:08;;;;;;;12.50;7.57;;;1.00;99.90;;;;;;5115332;28;20172;-57
2023/12/04 03:03:34;;;;;;;13.20;8.10;;;1.00;99.90;;;;;;5115242;28;20196;-57
2023/12/04 03:05:59;;;;;;;11.98;7.10;;;1.00;99.90;;;;;;5115209;28;20624;-45
2023/12/04 03:08:25;;;;;;;12.55;8.07;;;1.00;99.90;;;;;;5100214;28;20173;-57
2023/12/04 03:10:50;;;;;;;12.40;7.15;;;1.00;99.90;;;;;;5094706;28;20165;-54
2023/12/04 03:13:16;;;;;;;10.70;7.10;;;0.90;99.90;;;;;;5094737;28;20169;-55
2023/12/04 03:15:41;;;;;;;13.18;7.82;;;0.90;99.90;;;;;;5100683;28;20180;-56
2023/12/04 03:18:07;;;;;;;11.80;7.25;;;1.00;99.90;;;;;;5115101;28;20252;-57
2023/12/04 03:20:33;;;;;;;12.80;7.72;;;0.90;99.90;;;;;;5115050;28;20173;-57
2023/12/04 03:22:58;;;;;;;14.73;8.00;;;0.90;99.90;;;;;;5115276;28;20172;-57
2023/12/04 03:25:24;;;;;;;13.65;8.00;;;1.00;99.90;;;;;;5115206;28;20172;-57
2023/12/04 03:27:49;;;;;;;11.93;7.78;;;0.90;99.90;;;;;;5114817;28;20167;-57
2023/12/04 03:30:16;;;;;;;10.80;7.00;;;0.90;99.90;;;;;;5114736;28;20169;-57
2023/12/04 03:32:41;;;;;;;12.52;7.68;;;0.90;99.90;;;;;;5114881;28;20494;-59
2023/12/04 03:35:07;;;;;;;13.23;7.65;;;0.90;99.90;;;;;;5114677;28;20168;-57
2023/12/04 03:37:33;;;;;;;14.55;8.23;;;0.90;99.90;;;;;;5106923;28;20176;-58
2023/12/04 03:39:59;;;;;;;12.35;8.20;;;0.90;99.90;;;;;;5094591;28;20185;-57
2023/12/04 03:42:24;;;;;;;13.38;8.07;;;0.90;99.90;;;;;;5094646;28;20192;-55
2023/12/04 03:44:50;;;;;;;14.38;8.00;;;0.90;99.90;;;;;;5094057;28;20208;-56
2023/12/04 03:47:15;;;;;;;12.43;8.15;;;0.90;99.90;;;;;;5094051;28;20248;-56
2023/12/04 03:49:41;;;;;;;13.65;8.15;;;0.80;99.90;;;;;;5093912;28;20173;-56
2023/12/04 03:52:06;;;;;;;15.95;7.93;;;0.80;99.90;;;;;;5093819;28;20271;-56
2023/12/04 03:54:32;;;;;;;13.35;7.95;;;0.80;99.90;;;;;;5093870;28;20176;-56
2023/12/04 03:56:57;;;;;;;13.90;7.97;;;0.80;99.90;;;;;;5096947;28;20287;-57
2023/12/04 03:59:23;;;;;;;14.00;8.13;;;0.80;99.90;;;;;;5113969;28;20196;-57
2023/12/04 04:01:48;;;;;;;17.85;8.90;;;0.90;99.90;;;;;;5113367;28;20193;-56
2023/12/04 04:04:14;;;;;;;15.45;9.00;;;0.80;99.90;;;;;;5114027;28;20298;-56
2023/12/04 04:06:39;;;;;;;12.18;7.82;;;0.90;99.90;;;;;;5113326;28;20218;-56
2023/12/04 04:09:05;;;;;;;14.25;8.20;;;0.90;99.90;;;;;;5113822;28;20712;-56
2023/12/04 04:11:31;;;;;;;11.98;6.75;;;0.80;99.90;;;;;;5113915;28;20171;-56
2023/12/04 04:13:57;;;;;;;12.48;7.97;;;0.80;99.90;;;;;;5114383;28;20212;-55
2023/12/04 04:16:22;;;;;;;16.63;8.52;;;0.90;99.90;;;;;;5113878;28;20528;-56
2023/12/04 04:18:48;;;;;;;14.02;8.90;;;0.90;99.90;;;;;;5113782;28;20615;-56
2023/12/04 04:21:13;;;;;;;13.60;7.72;;;0.80;99.90;;;;;;5113826;28;20171;-56
2023/12/04 04:23:39;;;;;;;14.05;8.15;;;0.80;99.90;;;;;;5113950;28;20202;-56
2023/12/04 04:26:05;;;;;;;12.65;8.05;;;0.80;99.90;;;;;;5113719;28;20164;-56
2023/12/04 04:28:30;;;;;;;14.13;8.45;;;0.80;99.90;;;;;;5113858;28;20180;-56
2023/12/04 04:30:56;;;;;;;13.00;7.63;;;0.80;99.90;;;;;;5114289;28;20221;-56
2023/12/04 04:33:21;;;;;;;14.25;8.55;;;0.80;99.90;;;;;;5113577;28;20172;-54
2023/12/04 04:35:47;;;;;;;12.77;7.80;;;0.80;99.90;;;;;;5113488;28;20214;-56
2023/12/04 04:38:12;;;;;;;13.27;8.27;;;0.80;99.90;;;;;;5097693;28;20169;-57
2023/12/04 04:40:41;;;;;;;16.05;8.25;;;0.80;99.90;;;;;;5093035;28;20234;-56
2023/12/04 04:43:07;;;;;;;14.68;8.02;;;0.80;99.90;;;;;;5093130;28;20165;-56
2023/12/04 04:45:33;;;;;;;13.30;7.68;;;0.80;99.90;;;;;;5093043;28;20260;-57
2023/12/04 04:47:58;;;;;;;10.35;7.45;;;0.90;99.90;;;;;;5092983;28;20189;-45
2023/12/04 04:50:24;;;;;;;13.57;7.88;;;0.90;99.90;;;;;;5094778;28;20169;-56
2023/12/04 04:52:50;;;;;;;13.65;8.70;;;0.90;99.90;;;;;;5112615;28;20223;-48
2023/12/04 04:55:15;;;;;;;16.83;8.98;;;0.90;99.90;;;;;;5113145;28;20172;-56
2023/12/04 04:57:41;;;;;;;12.27;8.65;;;0.90;99.90;;;;;;5113183;28;20188;-55
2023/12/04 05:00:07;;;;;;;12.32;7.63;;;0.90;99.90;;;;;;5113026;28;20242;-55
2023/12/04 05:02:32;;;;;;;16.05;8.32;;;0.90;99.90;;;;;;5112923;28;20620;-56
2023/12/04 05:05:00;;;;;;;13.38;8.57;;;0.90;99.90;;;;;;5113526;28;20296;-52
2023/12/04 05:07:25;;;;;;;13.95;8.68;;;0.80;99.90;;;;;;5104409;28;20173;-56
2023/12/04 05:09:51;;;;;;;13.13;7.82;;;0.80;99.90;;;;;;5092416;28;20226;-56
2023/12/04 05:12:16;;;;;;;14.45;8.80;;;0.80;99.90;;;;;;5091565;28;20222;-56
2023/12/04 05:14:42;;;;;;;12.20;7.88;;;0.80;99.90;;;;;;5092239;28;20173;-56
2023/12/04 05:17:07;;;;;;;20.33;8.30;;;0.80;99.90;;;;;;5092304;28;20242;-57
2023/12/04 05:19:33;;;;;;;14.15;7.43;;;0.80;99.90;;;;;;5092294;28;20567;-56
2023/12/04 05:21:58;;;;;;;13.10;8.27;;;0.90;99.90;;;;;;5092849;28;20161;-54
2023/12/04 05:24:24;;;;;;;12.40;7.40;;;0.90;99.90;;;;;;5092476;28;20240;-50
2023/12/04 05:26:49;;;;;;;11.25;8.32;;;0.90;99.90;;;;;;5092110;28;20173;-54
2023/12/04 05:29:15;;;;;;;16.73;8.07;;;0.90;99.90;;;;;;5092119;28;20188;-57
2023/12/04 05:31:40;;;;;;;16.40;8.25;;;0.90;99.90;;;;;;5092112;28;20532;-57
2023/12/04 05:34:06;;;;;;;15.32;9.27;;;0.90;99.90;;;;;;5092026;28;20165;-56
2023/12/04 05:36:32;;;;;;;14.20;8.43;;;0.90;99.90;;;;;;5092246;28;20177;-56
2023/12/04 05:38:57;;;;;;;11.00;7.80;;;1.00;99.90;;;;;;5096443;28;20164;-56
2023/12/04 05:41:23;;;;;;;15.00;9.68;;;0.90;99.90;;;;;;5112243;28;20183;-56
2023/12/04 05:43:48;;;;;;;14.27;8.23;;;0.90;99.90;;;;;;5112159;28;20204;-56
2023/12/04 05:46:14;;;;;;;14.70;8.23;;;0.90;99.90;;;;;;5112163;28;20160;-56
2023/12/04 05:48:39;;;;;;;15.77;8.80;;;0.90;99.90;;;;;;5112099;28;20168;-54
2023/12/04 05:51:05;;;;;;;14.57;8.60;;;1.00;99.90;;;;;;5111868;28;20183;-56
2023/12/04 05:53:31;;;;;;;15.02;8.63;;;1.00;99.90;;;;;;5112242;28;20639;-56
2023/12/04 05:55:56;;;;;;;12.73;7.85;;;1.00;99.90;;;;;;5112694;28;20176;-57
2023/12/04 05:58:22;;;;;;;13.80;7.85;;;1.00;99.90;;;;;;5111921;28;20584;-55
2023/12/04 06:00:47;;;;;;;13.18;8.63;;;1.00;99.90;;;;;;5112185;28;20680;-55
2023/12/04 06:03:13;;;;;;;18.88;9.30;;;1.00;99.90;;;;;;5111786;28;20160;-54
2023/12/04 06:05:38;;;;;;;15.73;8.55;;;1.00;99.90;;;;;;5111842;28;20173;-56
2023/12/04 06:08:04;;;;;;;14.00;8.60;;;1.00;99.90;;;;;;5095574;28;20180;-56
2023/12/04 06:10:30;;;;;;;15.10;9.20;;;1.00;99.90;;;;;;5091531;28;20180;-54
2023/12/04 06:12:55;;;;;;;22.70;11.07;;;1.00;99.90;;;;;;5091649;28;20663;-56
2023/12/04 06:15:21;;;;;;;15.60;9.38;;;1.00;99.90;;;;;;5091248;28;20178;-56
2023/12/04 06:17:46;;;;;;;16.88;9.48;;;1.00;99.90;;;;;;5091384;28;20157;-57
2023/12/04 06:20:12;;;;;;;21.20;10.98;;;0.90;99.90;;;;;;5091420;28;20506;-56
2023/12/04 06:22:38;;;;;;;15.52;9.60;;;1.00;99.90;;;;;;5091589;28;20643;-53
2023/12/04 06:25:05;;;;;;;16.23;9.65;;;1.00;99.90;;;;;;5094240;28;20676;-57
2023/12/04 06:27:31;;;;;;;16.52;9.68;;;1.00;99.90;;;;;;5095624;28;20214;-57
2023/12/04 06:29:57;;;;;;;14.25;8.60;;;1.00;99.90;;;;;;5096182;28;20173;-56
2023/12/04 06:32:23;;;;;;;17.92;9.13;;;1.00;99.90;;;;;;5095608;28;20173;-56
2023/12/04 06:34:49;;;;;;;21.77;12.73;;;1.00;99.90;;;;;;5095309;28;20525;-55
2023/12/04 06:37:15;;;;;;;18.50;10.65;;;1.10;99.90;;;;;;5095503;28;20181;-56
2023/12/04 06:39:41;;;;;;;14.15;8.88;;;1.10;99.90;;;;;;5095396;28;20174;-56
2023/12/04 06:42:08;;;;;;;14.70;9.45;;;1.10;99.90;;;;;;5095183;28;20205;-57
2023/12/04 06:44:34;;;;;;;15.77;8.80;;;1.10;99.90;;;;;;5095187;28;20204;-57
2023/12/04 06:47:04;;;;;;;17.77;10.63;;;1.10;99.90;;;;;;5095201;28;20196;-56
2023/12/04 06:49:33;;;;;;;17.58;8.98;;;1.10;99.90;;;;;;5094951;28;20566;-56
2023/12/04 06:52:03;;;;;;;12.55;8.45;;;1.10;99.90;;;;;;5094919;28;20212;-51
2023/12/04 06:54:29;;;;;;;16.67;8.98;;;1.10;99.90;;;;;;5095135;28;20177;-47
2023/12/04 06:56:54;;;;;;;21.42;12.30;;;1.10;99.90;;;;;;5095589;28;20328;-55
2023/12/04 06:59:20;;;;;;;14.82;8.98;;;1.10;99.90;;;;;;5094970;28;20211;-52
2023/12/04 07:01:46;;;;;;;19.38;10.63;;;1.10;99.90;;;;;;5094856;28;20185;-56
2023/12/04 07:04:13;;;;;;;16.98;9.95;;;1.10;99.90;;;;;;5094782;28;20197;-56
2023/12/04 07:06:39;;;;;;;14.23;9.07;;;1.10;99.90;;;;;;5100349;28;20527;-56
2023/12/04 07:09:08;;;;;;;15.48;10.65;;;1.10;99.90;;;;;;5104303;28;20263;-55
2023/12/04 07:11:34;;;;;;;14.60;9.13;;;1.10;99.90;;;;;;5094254;28;20160;-56
2023/12/04 07:14:00;;;;;;;12.82;8.05;;;1.00;99.90;;;;;;5094620;28;20608;-57
2023/12/04 07:16:25;;;;;;;13.43;8.45;;;1.10;99.90;;;;;;5094691;28;20192;-56
2023/12/04 07:18:51;;;;;;;15.65;9.80;;;1.10;99.90;;;;;;5094189;28;20169;-56
2023/12/04 07:21:16;;;;;;;15.85;10.20;;;1.20;99.90;;;;;;5093977;28;20636;-55
2023/12/04 07:23:42;;;;;;;16.23;8.93;;;1.20;99.90;;;;;;5093691;28;20197;-56
2023/12/04 07:26:07;;;;;;;13.98;8.48;;;1.20;99.90;;;;;;5093896;28;20180;-53
2023/12/04 07:28:34;;;;;;;14.73;8.65;;;1.10;99.90;;;;;;5093996;28;20236;-55
2023/12/04 07:31:01;;;;;;;12.95;8.77;;;1.20;99.90;;;;;;5093701;28;20559;-54
2023/12/04 07:33:27;;;;;;;15.20;10.23;;;1.10;99.90;;;;;;5094427;28;20193;-57
2023/12/04 07:35:53;;;;;;;22.33;11.38;;;1.10;99.90;;;;;;5092407;28;20647;-56
2023/12/04 07:38:18;;;;;;;16.73;10.30;;;1.10;99.90;;;;;;5113475;28;20165;-56
2023/12/04 07:40:45;;;;;;;19.02;10.95;;;1.10;99.90;;;;;;5113894;28;20177;-54
2023/12/04 07:43:11;;;;;;;15.23;10.05;;;1.10;99.90;;;;;;5113899;28;20460;-56
2023/12/04 07:45:36;;;;;;;17.58;10.45;;;1.10;99.90;;;;;;5113436;28;20225;-52
2023/12/04 07:48:03;;;;;;;18.10;10.77;;;1.10;99.90;;;;;;5114267;28;20164;-56
2023/12/04 07:50:29;;;;;;;18.83;10.38;;;1.20;99.90;;;;;;5113840;28;20504;-50
2023/12/04 07:52:55;;;;;;;26.20;9.68;;;1.20;99.90;;;;;;5114089;28;20272;-56
2023/12/04 07:55:20;;;;;;;19.35;10.57;;;1.20;99.90;;;;;;5114138;28;20282;-54
2023/12/04 07:57:47;;;;;;;22.55;12.07;;;1.20;99.90;;;;;;5113670;28;20628;-49
2023/12/04 08:00:13;;;;;;;15.43;9.52;;;1.20;99.90;;;;;;5113949;28;20225;-47
2023/12/04 08:02:39;;;;;;;22.77;11.55;;;1.20;99.90;;;;;;5113711;28;20529;-56
2023/12/04 08:05:05;;;;;;;19.90;10.35;;;1.20;99.90;;;;;;5113433;28;20204;-56
2023/12/04 08:07:30;;;;;;;16.05;9.68;;;1.20;99.90;;;;;;5100114;28;20176;-54
2023/12/04 08:09:56;;;;;;;18.95;10.68;;;1.20;99.90;;;;;;5093475;28;20172;-56
2023/12/04 08:12:21;;;;;;;14.05;9.55;;;1.20;99.90;;;;;;5092887;28;20168;-56
2023/12/04 08:14:47;;;;;;;14.90;9.50;;;1.20;99.90;;;;;;5092995;28;20617;-56
2023/12/04 08:17:12;;;;;;;14.48;9.45;;;1.20;99.90;;;;;;5092844;28;20227;-54
2023/12/04 08:19:38;;;;;;;24.48;10.55;;;1.20;99.90;;;;;;5093056;28;20694;-56
2023/12/04 08:22:04;;;;;;;17.73;11.00;;;1.20;99.90;;;;;;5092730;28;20166;-54
2023/12/04 08:24:29;;;;;;;16.83;10.70;;;1.20;99.90;;;;;;5092649;28;20205;-56
2023/12/04 08:26:57;;;;;;;20.48;9.90;;;1.20;99.90;;;;;;5093175;28;20168;-56
2023/12/04 08:29:22;;;;;;;18.30;10.73;;;1.20;99.90;;;;;;5092581;28;20691;-50
2023/12/04 08:31:48;;;;;;;20.60;10.13;;;1.30;99.90;;;;;;5092864;28;20169;-54
2023/12/04 08:34:13;;;;;;;17.75;10.13;;;1.30;99.90;;;;;;5092690;28;20732;-52
2023/12/04 08:36:39;;;;;;;16.42;10.75;;;1.30;99.90;;;;;;5100667;28;20214;-57
2023/12/04 08:39:04;;;;;;;15.65;9.50;;;1.30;99.90;;;;;;5112802;28;20177;-53
2023/12/04 08:41:30;;;;;;;18.33;10.45;;;1.30;99.90;;;;;;5113044;28;20187;-52
2023/12/04 08:43:56;;;;;;;22.65;10.85;;;1.40;99.90;;;;;;5112985;28;20228;-55
2023/12/04 08:46:22;;;;;;;15.18;10.23;;;1.40;99.90;;;;;;5112831;28;20172;-57
2023/12/04 08:48:47;;;;;;;18.02;9.82;;;1.40;99.90;;;;;;5112605;28;20161;-54
2023/12/04 08:51:17;;;;;;;17.10;10.05;;;1.50;99.90;;;;;;5112380;28;20220;-55
2023/12/04 08:53:42;;;;;;;19.05;10.55;;;1.50;99.90;;;;;;5112780;28;20318;-55
2023/12/04 08:56:09;;;;;;;17.23;10.10;;;1.50;99.90;;;;;;5112564;28;20248;-57
2023/12/04 08:58:34;;;;;;;23.40;11.80;;;1.40;99.90;;;;;;5112457;28;20172;-55
2023/12/04 09:01:00;;;;;;;21.00;10.73;;;1.40;99.90;;;;;;5112375;28;20210;-56
2023/12/04 09:03:25;;;;;;;14.70;9.27;;;1.50;99.90;;;;;;5112939;28;20587;-56
2023/12/04 09:05:51;;;;;;;14.80;9.40;;;1.50;99.90;;;;;;5110614;28;20161;-53
2023/12/04 09:08:18;;;;;;;17.35;10.00;;;1.50;99.90;;;;;;5092155;28;20204;-53
2023/12/04 09:10:45;;;;;;;20.23;10.70;;;1.50;99.90;;;;;;5091655;28;20660;-53
2023/12/04 09:13:11;;;;;;;17.80;9.88;;;1.50;99.90;;;;;;5092094;28;20177;-56
2023/12/04 09:15:36;;;;;;;15.25;9.90;;;1.50;99.90;;;;;;5104783;28;20624;-51
2023/12/04 09:18:02;;;;;;;15.40;9.23;;;1.40;99.90;;;;;;5112140;28;20165;-54
2023/12/04 09:20:28;;;;;;;15.93;9.77;;;1.40;99.90;;;;;;5112753;28;20616;-54
2023/12/04 09:22:53;;;;;;;16.70;9.52;;;1.40;99.90;;;;;;5112366;28;20169;-55
2023/12/04 09:25:19;;;;;;;15.07;9.50;;;1.30;99.90;;;;;;5111950;28;20558;-56
2023/12/04 09:27:46;;;;;;;14.43;8.68;;;1.40;99.90;;;;;;5112072;28;20257;-55
2023/12/04 09:30:12;;;;;;;14.45;9.07;;;1.40;99.90;;;;;;5112105;28;20259;-54
2023/12/04 09:32:37;;;;;;;13.77;8.02;;;1.40;99.90;;;;;;5111813;28;20248;-52
2023/12/04 09:35:03;;;;;;;12.88;8.02;;;1.40;99.90;;;;;;5111800;28;20624;-56
2023/12/04 09:37:29;;;;;;;14.95;9.07;;;1.40;99.90;;;;;;5110360;28;20180;-55
2023/12/04 09:39:54;;;;;;;15.50;9.45;;;1.50;99.90;;;;;;5112055;28;20180;-55
2023/12/04 09:42:20;;;;;;;16.23;9.02;;;1.50;99.90;;;;;;5111654;28;20562;-56
2023/12/04 09:44:49;;;;;;;11.63;7.28;;;1.60;99.90;;;;;;5111603;28;20737;-57
2023/12/04 09:47:21;;;;;;;16.02;8.80;;;1.60;99.90;;;;;;5111760;28;20271;-50
2023/12/04 09:49:48;;;;;;;13.77;8.75;;;1.70;99.90;;;;;;5111616;28;20164;-53
2023/12/04 09:52:14;;;;;;;18.42;11.32;;;1.70;99.90;;;;;;5111309;28;20212;-52
2023/12/04 09:54:41;;;;;;;14.82;7.72;;;1.70;99.90;;;;;;5111839;28;20255;-48
2023/12/04 09:57:06;;;;;;;17.63;8.73;;;1.60;99.90;;;;;;5111479;28;20623;-50
2023/12/04 09:59:32;;;;;;;14.50;9.23;;;1.60;99.90;;;;;;5110658;28;20167;-51
2023/12/04 10:01:58;;;;;;;14.65;9.32;;;1.70;99.90;;;;;;5111402;28;20684;-48
2023/12/04 10:04:25;;;;;;;12.25;8.43;;;1.70;99.90;;;;;;5111742;28;20204;-50
2023/12/04 10:06:52;;;;;;;15.98;9.65;;;1.70;99.90;;;;;;5102150;28;20214;-48
2023/12/04 10:09:18;;;;;;;12.77;7.85;;;1.80;99.90;;;;;;5103972;28;20587;-47
2023/12/04 10:11:45;;;;;;;15.00;8.52;;;1.80;99.90;;;;;;5111233;28;20709;-49
2023/12/04 10:14:21;;;;;;;12.35;8.55;;;1.80;99.90;;;;;;5111030;28;20259;-47
2023/12/04 10:16:47;;;;;;;17.00;8.48;;;1.70;99.90;;;;;;5111096;28;20164;-51
2023/12/04 10:19:28;;;;;;;13.68;8.35;;;1.70;99.90;;;;;;5111477;28;20251;-46
2023/12/04 10:21:56;;;;;;;13.90;9.18;;;1.70;99.90;;;;;;5112374;28;20279;-51
2023/12/04 10:24:35;;;;;;;12.60;8.38;;;1.70;99.90;;;;;;5110937;28;20204;-54
2023/12/04 10:27:04;;;;;;;17.30;9.20;;;1.60;99.90;;;;;;5111180;28;20168;-47
2023/12/04 10:29:44;;;;;;;13.13;8.65;;;1.70;99.90;;;;;;5111333;28;20169;-45
2023/12/04 10:32:10;;;;;;;14.88;9.75;;;1.70;99.90;;;;;;5110594;28;20179;-48
2023/12/04 10:34:35;;;;;;;13.32;8.70;;;1.70;99.90;;;;;;5111237;28;20177;-50
2023/12/04 10:37:04;;;;;;;13.80;9.13;;;1.80;99.90;;;;;;5097741;28;20176;-47
2023/12/04 10:39:30;;;;;;;12.45;7.13;;;1.80;99.90;;;;;;5090729;28;20688;-54
2023/12/04 10:42:02;;;;;;;11.73;7.53;;;1.90;99.90;;;;;;5091113;28;20185;-53
2023/12/04 10:44:28;;;;;;;15.15;8.32;;;1.80;99.90;;;;;;5091290;28;20209;-50
2023/12/04 10:46:57;;;;;;;13.10;8.70;;;1.90;99.90;;;;;;5091303;28;20173;-51
2023/12/04 10:49:31;;;;;;;15.80;9.38;;;1.90;99.90;;;;;;5091158;28;20177;-47
2023/12/04 10:51:59;;;;;;;12.63;8.43;;;1.90;99.90;;;;;;5090960;28;20232;-46
2023/12/04 10:54:25;;;;;;;16.27;8.20;;;-0.70;99.90;;;;;;5091318;28;20173;-49
2023/12/04 10:56:53;;;;;;;13.13;8.57;;;1.90;99.90;;;;;;5090873;28;20169;-47
2023/12/04 10:59:25;;;;;;;11.07;7.57;;;1.90;99.90;;;;;;5090912;28;20204;-48
2023/12/04 11:01:54;;;;;;;12.57;8.10;;;1.90;99.90;;;;;;5090715;28;20609;-53
2023/12/04 11:04:21;;;;;;;11.10;8.07;;;1.90;99.90;;;;;;5090380;28;20283;-53
2023/12/04 11:06:51;;;;;;;14.77;9.63;;;1.80;99.90;;;;;;5090871;28;20178;-54
2023/12/04 11:09:21;;;;;;;12.95;8.32;;;1.80;99.90;;;;;;5090254;28;20157;-52
2023/12/04 11:11:51;;;;;;;11.95;8.38;;;1.80;99.90;;;;;;5093703;28;20157;-53
2023/12/04 11:14:22;;;;;;;12.43;8.70;;;1.70;99.90;;;;;;5093484;28;20202;-51
2023/12/04 11:16:57;;;;;;;12.10;7.45;;;1.80;99.90;;;;;;5093995;28;20170;-53
2023/12/04 11:19:43;;;;;;;16.83;9.05;;;1.80;99.90;;;;;;5094319;28;20181;-48
2023/12/04 11:22:09;;;;;;;13.80;7.68;;;1.80;99.90;;;;;;5094058;28;20677;-52
2023/12/04 11:24:36;;;;;;;12.75;8.48;;;1.80;99.90;;;;;;5093428;28;20300;-53
2023/12/04 11:27:02;;;;;;;13.30;8.82;;;1.80;99.90;;;;;;5093853;28;20165;-52
2023/12/04 11:29:29;;;;;;;13.05;8.20;;;1.80;99.90;;;;;;5093538;28;20190;-47
2023/12/04 11:31:55;;;;;;;13.88;8.88;;;1.80;99.90;;;;;;5094312;28;20522;-54
2023/12/04 11:34:21;;;;;;;14.10;9.77;;;0.70;99.90;;;;;;5093878;28;20170;-56
2023/12/04 11:36:47;;;;;;;14.27;8.85;;;1.80;99.90;;;;;;5075890;28;20193;-53
2023/12/04 11:39:12;;;;;;;15.82;9.15;;;2.00;99.90;;;;;;5093925;28;20174;-56
2023/12/04 11:41:40;;;;;;;13.02;9.07;;;1.90;99.90;;;;;;5093931;28;20527;-56
2023/12/04 11:44:15;;;;;;;17.15;9.38;;;2.00;99.90;;;;;;5093674;28;20209;-55
2023/12/04 11:46:56;;;;;;;14.90;9.55;;;2.00;99.90;;;;;;5093105;28;20705;-50
2023/12/04 11:49:30;;;;;;;16.02;10.15;;;2.10;99.90;;;;;;5093781;28;20188;-52
2023/12/04 11:51:57;;;;;;;15.65;9.70;;;3.40;99.90;;;;;;5093776;28;20217;-51
2023/12/04 11:54:27;;;;;;;14.30;9.88;;;1.90;99.90;;;;;;5093416;28;20794;-46
2023/12/04 11:57:07;;;;;;;14.43;9.60;;;2.00;99.90;;;;;;5093325;28;20169;-52
2023/12/04 11:59:39;;;;;;;17.00;9.02;;;1.90;99.90;;;;;;5093233;28;20161;-54
2023/12/04 12:02:09;;;;;;;15.27;9.50;;;1.80;99.90;;;;;;5093659;28;20201;-52
2023/12/04 12:04:35;;;;;;;20.70;10.20;;;1.90;99.90;;;;;;5106354;28;20300;-56
2023/12/04 12:07:02;;;;;;;16.50;9.38;;;2.00;99.90;;;;;;5113640;28;20199;-48
2023/12/04 12:09:34;;;;;;;28.42;18.85;;;2.00;99.90;;;;;;5113404;28;20171;-46
2023/12/04 12:12:03;;;;;;;17.13;10.15;;;2.10;99.90;;;;;;5113361;28;20173;-54
2023/12/04 12:14:30;;;;;;;19.42;10.00;;;2.20;99.90;;;;;;5113356;28;20648;-51
2023/12/04 12:16:58;;;;;;;15.48;9.35;;;2.10;99.90;;;;;;5113800;28;20173;-55
2023/12/04 12:19:23;;;;;;;19.23;11.80;;;2.10;99.90;;;;;;5113545;28;20195;-57
2023/12/04 12:21:51;;;;;;;17.15;10.25;;;2.10;99.90;;;;;;5112670;28;20597;-50
2023/12/04 12:24:17;;;;;;;16.15;9.60;;;2.10;99.90;;;;;;5113412;28;20196;-54
2023/12/04 12:26:43;;;;;;;29.35;13.18;;;2.10;99.90;;;;;;5113175;28;20161;-53
2023/12/04 12:29:09;;;;;;;16.95;10.48;;;2.10;99.90;;;;;;5113102;28;20506;-56
2023/12/04 12:31:34;;;;;;;21.17;12.68;;;2.10;99.90;;;;;;5109238;28;20177;-47
2023/12/04 12:34:00;;;;;;;20.65;12.23;;;2.20;99.90;;;;;;5074908;28;20234;-51
2023/12/04 12:36:26;;;;;;;30.35;19.08;;;2.10;99.90;;;;;;5093078;28;20173;-53
2023/12/04 12:38:51;;;;;;;32.92;18.85;;;2.00;99.90;;;;;;5092983;28;20165;-51
2023/12/04 12:41:17;;;;;;;47.25;24.33;;;2.10;99.90;;;;;;5092902;28;20775;-56